sensor_id;sensor_type;location;lat;lon;timestamp;pressure;altitude;pressure_sealevel;temperature;humidity
29315;BME280;16320;53.954;9.506;2023-02-04T00:00:51;102578.09;;;2.71;100.00
29315;BME280;16320;53.954;9.506;2023-02-04T00:03:55;102585.03;;;2.72;100.00
29315;BME280;16320;53.954;9.506;2023-02-04T00:07:00;102596.28;;;2.74;100.00
29315;BME280;16320;53.954;9.506;2023-02-04T00:10:05;102603.28;;;2.78;100.00
29315;BME280;16320;53.954;9.506;2023-02-04T00:13:10;102610.22;;;2.84;100.00
29315;BME280;16320;53.954;9.506;2023-02-04T00:16:14;102621.50;;;2.86;100.00
29315;BME280;16320;53.954;9.506;2023-02-04T00:19:18;102636.34;;;2.96;100.00
29315;BME280;16320;53.954;9.506;2023-02-04T00:22:23;102646.78;;;3.05;100.00
29315;BME280;16320;53.954;9.506;2023-02-04T00:25:29;102663.31;;;3.09;100.00
29315;BME280;16320;53.954;9.506;2023-02-04T00:28:34;102671.91;;;3.06;100.00
29315;BME280;16320;53.954;9.506;2023-02-04T00:31:38;102678.81;;;3.04;100.00
29315;BME280;16320;53.954;9.506;2023-02-04T00:34:42;102685.69;;;2.99;100.00
29315;BME280;16320;53.954;9.506;2023-02-04T00:37:46;102707.34;;;3.01;100.00
29315;BME280;16320;53.954;9.506;2023-02-04T00:40:51;102717.72;;;3.01;100.00
29315;BME280;16320;53.954;9.506;2023-02-04T00:43:55;102731.59;;;3.03;100.00
29315;BME280;16320;53.954;9.506;2023-02-04T00:47:00;102728.16;;;3.04;100.00
29315;BME280;16320;53.954;9.506;2023-02-04T00:50:05;102736.84;;;3.08;100.00
29315;BME280;16320;53.954;9.506;2023-02-04T00:53:09;102741.25;;;3.15;100.00
29315;BME280;16320;53.954;9.506;2023-02-04T00:56:13;102755.09;;;3.14;100.00
29315;BME280;16320;53.954;9.506;2023-02-04T00:59:18;102755.97;;;3.15;100.00
29315;BME280;16320;53.954;9.506;2023-02-04T01:02:22;102749.88;;;3.11;100.00
29315;BME280;16320;53.954;9.506;2023-02-04T01:05:27;102768.94;;;3.15;100.00
29315;BME280;16320;53.954;9.506;2023-02-04T01:08:32;102764.63;;;3.14;100.00
29315;BME280;16320;53.954;9.506;2023-02-04T01:11:36;102755.09;;;3.14;100.00
29315;BME280;16320;53.954;9.506;2023-02-04T01:14:41;102757.66;;;3.09;100.00
29315;BME280;16320;53.954;9.506;2023-02-04T01:17:45;102761.97;;;3.07;100.00
29315;BME280;16320;53.954;9.506;2023-02-04T01:20:49;102768.81;;;3.04;100.00
29315;BME280;16320;53.954;9.506;2023-02-04T01:23:54;102779.91;;;2.92;100.00
29315;BME280;16320;53.954;9.506;2023-02-04T01:26:58;102784.16;;;2.85;100.00
29315;BME280;16320;53.954;9.506;2023-02-04T01:30:05;102790.94;;;2.75;100.00
29315;BME280;16320;53.954;9.506;2023-02-04T01:33:10;102797.63;;;2.60;100.00
29315;BME280;16320;53.954;9.506;2023-02-04T01:36:14;102802.81;;;2.60;100.00
29315;BME280;16320;53.954;9.506;2023-02-04T01:39:24;102806.13;;;2.48;100.00
29315;BME280;16320;53.954;9.506;2023-02-04T01:42:29;102810.31;;;2.40;100.00
29315;BME280;16320;53.954;9.506;2023-02-04T01:45:34;102817.19;;;2.36;100.00
29315;BME280;16320;53.954;9.506;2023-02-04T01:48:39;102820.41;;;2.21;100.00
29315;BME280;16320;53.954;9.506;2023-02-04T01:51:43;102824.66;;;2.19;100.00
29315;BME280;16320;53.954;9.506;2023-02-04T01:54:47;102828.78;;;2.08;100.00
29315;BME280;16320;53.954;9.506;2023-02-04T01:57:53;102837.31;;;2.00;100.00
29315;BME280;16320;53.954;9.506;2023-02-04T02:00:58;102844.22;;;1.98;100.00
29315;BME280;16320;53.954;9.506;2023-02-04T02:04:04;102853.50;;;1.87;100.00
29315;BME280;16320;53.954;9.506;2023-02-04T02:07:08;102857.72;;;1.82;100.00
29315;BME280;16320;53.954;9.506;2023-02-04T02:10:15;102854.97;;;1.74;100.00
29315;BME280;16320;53.954;9.506;2023-02-04T02:13:21;102864.41;;;1.71;100.00
29315;BME280;16320;53.954;9.506;2023-02-04T02:16:26;102869.41;;;1.61;100.00
29315;BME280;16320;53.954;9.506;2023-02-04T02:19:34;102883.13;;;1.57;100.00
29315;BME280;16320;53.954;9.506;2023-02-04T02:23:13;102899.09;;;1.36;100.00
29315;BME280;16320;53.954;9.506;2023-02-04T02:26:21;102910.28;;;1.34;100.00
29315;BME280;16320;53.954;9.506;2023-02-04T02:29:26;102931.00;;;1.34;100.00
29315;BME280;16320;53.954;9.506;2023-02-04T02:32:31;102939.59;;;1.33;100.00
29315;BME280;16320;53.954;9.506;2023-02-04T02:35:35;102936.09;;;1.31;100.00
29315;BME280;16320;53.954;9.506;2023-02-04T02:38:40;102951.63;;;1.31;100.00
29315;BME280;16320;53.954;9.506;2023-02-04T02:41:45;102961.22;;;1.35;100.00
29315;BME280;16320;53.954;9.506;2023-02-04T02:44:50;102956.81;;;1.31;100.00
29315;BME280;16320;53.954;9.506;2023-02-04T02:47:58;102962.00;;;1.31;100.00
29315;BME280;16320;53.954;9.506;2023-02-04T02:51:03;102958.50;;;1.28;100.00
29315;BME280;16320;53.954;9.506;2023-02-04T02:54:34;102965.28;;;1.23;100.00
29315;BME280;16320;53.954;9.506;2023-02-04T02:57:39;102969.59;;;1.23;100.00
29315;BME280;16320;53.954;9.506;2023-02-04T03:00:43;102977.38;;;1.24;100.00
29315;BME280;16320;53.954;9.506;2023-02-04T03:03:49;102991.22;;;1.26;100.00
29315;BME280;16320;53.954;9.506;2023-02-04T03:06:55;102995.66;;;1.31;100.00
29315;BME280;16320;53.954;9.506;2023-02-04T03:10:01;103005.19;;;1.32;100.00
29315;BME280;16320;53.954;9.506;2023-02-04T03:13:07;103001.75;;;1.33;100.00
29315;BME280;16320;53.954;9.506;2023-02-04T03:16:11;103005.19;;;1.32;100.00
29315;BME280;16320;53.954;9.506;2023-02-04T03:19:16;103018.81;;;1.24;100.00
29315;BME280;16320;53.954;9.506;2023-02-04T03:22:20;103031.72;;;1.23;100.00
29315;BME280;16320;53.954;9.506;2023-02-04T03:25:25;103037.72;;;1.20;100.00
29315;BME280;16320;53.954;9.506;2023-02-04T03:28:31;103037.72;;;1.20;100.00
29315;BME280;16320;53.954;9.506;2023-02-04T03:31:36;103048.94;;;1.21;100.00
29315;BME280;16320;53.954;9.506;2023-02-04T03:34:41;103048.00;;;1.17;100.00
29315;BME280;16320;53.954;9.506;2023-02-04T03:37:45;103049.56;;;1.12;100.00
29315;BME280;16320;53.954;9.506;2023-02-04T03:40:50;103059.06;;;1.12;100.00
29315;BME280;16320;53.954;9.506;2023-02-04T03:43:54;103060.69;;;1.08;100.00
29315;BME280;16320;53.954;9.506;2023-02-04T03:47:00;103066.63;;;1.04;100.00
29315;BME280;16320;53.954;9.506;2023-02-04T03:50:05;103065.72;;;1.02;100.00
29315;BME280;16320;53.954;9.506;2023-02-04T03:53:09;103070.88;;;1.02;100.00
29315;BME280;16320;53.954;9.506;2023-02-04T03:56:13;103069.97;;;1.00;100.00
29315;BME280;16320;53.954;9.506;2023-02-04T03:59:18;103078.44;;;0.94;100.00
29315;BME280;16320;53.954;9.506;2023-02-04T04:02:22;103078.34;;;0.89;100.00
29315;BME280;16320;53.954;9.506;2023-02-04T04:05:27;103085.25;;;0.90;100.00
29315;BME280;16320;53.954;9.506;2023-02-04T04:08:31;103088.75;;;0.93;100.00
29315;BME280;16320;53.954;9.506;2023-02-04T04:11:35;103084.41;;;0.90;100.00
29315;BME280;16320;53.954;9.506;2023-02-04T04:14:40;103091.16;;;0.85;100.00
29315;BME280;16320;53.954;9.506;2023-02-04T04:17:44;103086.84;;;0.85;100.00
29315;BME280;16320;53.954;9.506;2023-02-04T04:20:48;103085.22;;;0.89;100.00
29315;BME280;16320;53.954;9.506;2023-02-04T04:23:53;103083.38;;;0.83;100.00
29315;BME280;16320;53.954;9.506;2023-02-04T04:26:57;103102.13;;;0.76;100.00
29315;BME280;16320;53.954;9.506;2023-02-04T04:30:02;103105.34;;;0.67;100.00
29315;BME280;16320;53.954;9.506;2023-02-04T04:33:07;103116.78;;;0.76;100.00
29315;BME280;16320;53.954;9.506;2023-02-04T04:36:11;103126.19;;;0.72;100.00
29315;BME280;16320;53.954;9.506;2023-02-04T04:39:16;103132.94;;;0.67;100.00
29315;BME280;16320;53.954;9.506;2023-02-04T04:42:20;103141.28;;;0.58;100.00
29315;BME280;16320;53.954;9.506;2023-02-04T04:45:25;103146.41;;;0.57;100.00
29315;BME280;16320;53.954;9.506;2023-02-04T04:48:29;103171.38;;;0.54;100.00
29315;BME280;16320;53.954;9.506;2023-02-04T04:51:34;103174.81;;;0.55;100.00
29315;BME280;16320;53.954;9.506;2023-02-04T04:54:38;103187.72;;;0.53;100.00
29315;BME280;16320;53.954;9.506;2023-02-04T04:57:42;103192.81;;;0.50;100.00
29315;BME280;16320;53.954;9.506;2023-02-04T05:00:46;103197.00;;;0.47;100.00
29315;BME280;16320;53.954;9.506;2023-02-04T05:03:51;103207.28;;;0.45;100.00
29315;BME280;16320;53.954;9.506;2023-02-04T05:06:56;103211.47;;;0.40;100.00
29315;BME280;16320;53.954;9.506;2023-02-04T05:10:02;103216.72;;;0.43;100.00
29315;BME280;16320;53.954;9.506;2023-02-04T05:13:07;103218.59;;;0.47;100.00
29315;BME280;16320;53.954;9.506;2023-02-04T05:16:12;103231.63;;;0.52;100.00
29315;BME280;16320;53.954;9.506;2023-02-04T05:19:17;103237.03;;;0.60;100.00
29315;BME280;16320;53.954;9.506;2023-02-04T05:22:21;103248.31;;;0.62;100.00
29315;BME280;16320;53.954;9.506;2023-02-04T05:25:26;103250.25;;;0.69;100.00
29315;BME280;16320;53.954;9.506;2023-02-04T05:28:31;103255.53;;;0.72;100.00
29315;BME280;16320;53.954;9.506;2023-02-04T05:31:36;103245.28;;;0.75;100.00
29315;BME280;16320;53.954;9.506;2023-02-04T05:34:41;103252.19;;;0.76;100.00
29315;BME280;16320;53.954;9.506;2023-02-04T05:37:45;103247.81;;;0.73;100.00
29315;BME280;16320;53.954;9.506;2023-02-04T05:40:49;103255.53;;;0.72;100.00
29315;BME280;16320;53.954;9.506;2023-02-04T05:43:54;103262.28;;;0.67;100.00
29315;BME280;16320;53.954;9.506;2023-02-04T05:46:58;103261.44;;;0.68;100.00
29315;BME280;16320;53.954;9.506;2023-02-04T05:50:02;103266.41;;;0.60;100.00
29315;BME280;16320;53.954;9.506;2023-02-04T05:53:08;103268.53;;;0.46;100.00
29315;BME280;16320;53.954;9.506;2023-02-04T05:56:12;103279.28;;;0.59;100.00
29315;BME280;16320;53.954;9.506;2023-02-04T05:59:17;103293.69;;;0.52;100.00
29315;BME280;16320;53.954;9.506;2023-02-04T06:02:21;103295.13;;;0.42;100.00
29315;BME280;16320;53.954;9.506;2023-02-04T06:05:26;103285.72;;;0.44;100.00
29315;BME280;16320;53.954;9.506;2023-02-04T06:08:30;103288.41;;;0.47;100.00
29315;BME280;16320;53.954;9.506;2023-02-04T06:11:35;103298.09;;;0.54;100.00
29315;BME280;16320;53.954;9.506;2023-02-04T06:14:39;103306.41;;;0.44;100.00
29315;BME280;16320;53.954;9.506;2023-02-04T06:17:43;103311.34;;;0.36;100.00
29315;BME280;16320;53.954;9.506;2023-02-04T06:20:48;103313.16;;;0.39;100.00
29315;BME280;16320;53.954;9.506;2023-02-04T06:23:52;103316.66;;;0.41;100.00
29315;BME280;16320;53.954;9.506;2023-02-04T06:26:56;103323.06;;;0.52;100.00
29315;BME280;16320;53.954;9.506;2023-02-04T06:30:00;103340.41;;;0.57;100.00
29315;BME280;16320;53.954;9.506;2023-02-04T06:33:05;103353.25;;;0.53;100.00
29315;BME280;16320;53.954;9.506;2023-02-04T06:36:09;103340.34;;;0.55;100.00
29315;BME280;16320;53.954;9.506;2023-02-04T06:39:13;103349.94;;;0.58;100.00
29315;BME280;16320;53.954;9.506;2023-02-04T06:42:18;103362.91;;;0.59;100.00
29315;BME280;16320;53.954;9.506;2023-02-04T06:45:22;103366.63;;;0.67;100.00
29315;BME280;16320;53.954;9.506;2023-02-04T06:48:26;103376.13;;;0.67;100.00
29315;BME280;16320;53.954;9.506;2023-02-04T06:51:34;103382.97;;;0.66;100.00
29315;BME280;16320;53.954;9.506;2023-02-04T06:54:39;103389.91;;;0.67;100.00
29315;BME280;16320;53.954;9.506;2023-02-04T06:57:43;103399.41;;;0.67;100.00
29315;BME280;16320;53.954;9.506;2023-02-04T07:00:47;103414.06;;;0.68;100.00
29315;BME280;16320;53.954;9.506;2023-02-04T07:03:52;103409.19;;;0.77;100.00
29315;BME280;16320;53.954;9.506;2023-02-04T07:06:56;103423.16;;;0.82;100.00
29315;BME280;16320;53.954;9.506;2023-02-04T07:10:00;103419.72;;;0.82;100.00
29315;BME280;16320;53.954;9.506;2023-02-04T07:13:05;103418.91;;;0.84;100.00
29315;BME280;16320;53.954;9.506;2023-02-04T07:16:09;103426.66;;;0.84;100.00
29315;BME280;16320;53.954;9.506;2023-02-04T07:19:13;103435.28;;;0.83;100.00
29315;BME280;16320;53.954;9.506;2023-02-04T07:22:18;103426.66;;;0.84;100.00
29315;BME280;16320;53.954;9.506;2023-02-04T07:25:22;103444.84;;;0.86;100.00
29315;BME280;16320;53.954;9.506;2023-02-04T07:28:26;103446.59;;;0.87;100.00
29315;BME280;16320;53.954;9.506;2023-02-04T07:31:31;103445.75;;;0.86;100.00
29315;BME280;16320;53.954;9.506;2023-02-04T07:34:35;103448.47;;;0.91;100.00
29315;BME280;16320;53.954;9.506;2023-02-04T07:37:40;103456.38;;;0.96;100.00
29315;BME280;16320;53.954;9.506;2023-02-04T07:40:44;103442.59;;;0.97;100.00
29315;BME280;16320;53.954;9.506;2023-02-04T07:43:49;103442.81;;;1.03;100.00
29315;BME280;16320;53.954;9.506;2023-02-04T07:46:54;103440.16;;;1.01;100.00
29315;BME280;16320;53.954;9.506;2023-02-04T07:49:58;103435.75;;;0.99;100.00
29315;BME280;16320;53.954;9.506;2023-02-04T07:53:02;103443.53;;;0.99;100.00
29315;BME280;16320;53.954;9.506;2023-02-04T07:56:07;103451.38;;;1.02;100.00
29315;BME280;16320;53.954;9.506;2023-02-04T07:59:11;103464.13;;;0.96;100.00
29315;BME280;16320;53.954;9.506;2023-02-04T08:02:16;103456.38;;;0.96;100.00
29315;BME280;16320;53.954;9.506;2023-02-04T08:05:20;103456.25;;;0.93;100.00
29315;BME280;16320;53.954;9.506;2023-02-04T08:08:25;103454.63;;;0.95;100.00
29315;BME280;16320;53.954;9.506;2023-02-04T08:11:30;103465.84;;;0.95;100.00
29315;BME280;16320;53.954;9.506;2023-02-04T08:14:34;103474.53;;;0.97;100.00
29315;BME280;16320;53.954;9.506;2023-02-04T08:17:38;103473.78;;;1.00;100.00
29315;BME280;16320;53.954;9.506;2023-02-04T08:20:42;103475.59;;;1.04;100.00
29315;BME280;16320;53.954;9.506;2023-02-04T08:23:46;103484.44;;;1.09;100.00
29315;BME280;16320;53.954;9.506;2023-02-04T08:26:51;103483.78;;;1.16;100.00
29315;BME280;16320;53.954;9.506;2023-02-04T08:29:55;103488.41;;;1.26;100.00
29315;BME280;16320;53.954;9.506;2023-02-04T08:33:00;103486.88;;;1.32;100.00
29315;BME280;16320;53.954;9.506;2023-02-04T08:36:06;103494.59;;;1.30;100.00
29315;BME280;16320;53.954;9.506;2023-02-04T08:39:10;103502.47;;;1.35;100.00
29315;BME280;16320;53.954;9.506;2023-02-04T08:42:16;103514.56;;;1.34;100.00
29315;BME280;16320;53.954;9.506;2023-02-04T08:45:20;103519.63;;;1.31;100.00
29315;BME280;16320;53.954;9.506;2023-02-04T08:48:24;103521.78;;;1.44;100.00
29315;BME280;16320;53.954;9.506;2023-02-04T08:51:29;103521.81;;;1.46;100.00
29315;BME280;16320;53.954;9.506;2023-02-04T08:54:34;103528.78;;;1.47;100.00
29315;BME280;16320;53.954;9.506;2023-02-04T08:57:39;103532.19;;;1.46;100.00
29315;BME280;16320;53.954;9.506;2023-02-04T09:00:43;103527.09;;;1.49;100.00
29315;BME280;16320;53.954;9.506;2023-02-04T09:03:48;103528.22;;;1.57;100.00
29315;BME280;16320;53.954;9.506;2023-02-04T09:06:52;103529.22;;;1.62;100.00
29315;BME280;16320;53.954;9.506;2023-02-04T09:09:57;103530.22;;;1.66;100.00
29315;BME280;16320;53.954;9.506;2023-02-04T09:13:01;103532.97;;;1.71;100.00
29315;BME280;16320;53.954;9.506;2023-02-04T09:16:06;103537.44;;;1.76;100.00
29315;BME280;16320;53.954;9.506;2023-02-04T09:19:10;103539.38;;;1.83;100.00
29315;BME280;16320;53.954;9.506;2023-02-04T09:22:16;103533.59;;;1.92;100.00
29315;BME280;16320;53.954;9.506;2023-02-04T09:25:20;103530.53;;;2.06;100.00
29315;BME280;16320;53.954;9.506;2023-02-04T09:28:24;103530.78;;;2.15;100.00
29315;BME280;16320;53.954;9.506;2023-02-04T09:31:29;103540.50;;;2.22;100.00
29315;BME280;16320;53.954;9.506;2023-02-04T09:34:33;103528.63;;;2.30;100.00
29315;BME280;16320;53.954;9.506;2023-02-04T09:37:38;103529.63;;;2.35;100.00
29315;BME280;16320;53.954;9.506;2023-02-04T09:40:46;103540.44;;;2.51;100.00
29315;BME280;16320;53.954;9.506;2023-02-04T09:43:52;103540.69;;;2.60;100.00
29315;BME280;16320;53.954;9.506;2023-02-04T09:47:00;103545.44;;;2.77;100.00
29315;BME280;16320;53.954;9.506;2023-02-04T09:50:14;103550.09;;;2.90;100.00
29315;BME280;16320;53.954;9.506;2023-02-04T09:53:22;103560.88;;;3.05;100.00
29315;BME280;16320;53.954;9.506;2023-02-04T09:56:28;103556.72;;;3.12;100.00
29315;BME280;16320;53.954;9.506;2023-02-04T09:59:34;103554.75;;;3.03;100.00
29315;BME280;16320;53.954;9.506;2023-02-04T10:02:39;103554.19;;;3.14;100.00
29315;BME280;16320;53.954;9.506;2023-02-04T10:05:45;103546.44;;;3.17;100.00
29315;BME280;16320;53.954;9.506;2023-02-04T10:08:51;103549.72;;;3.09;100.00
29315;BME280;16320;53.954;9.506;2023-02-04T10:11:56;103557.06;;;3.26;100.00
29315;BME280;16320;53.954;9.506;2023-02-04T10:15:00;103544.22;;;3.32;100.00
29315;BME280;16320;53.954;9.506;2023-02-04T10:18:07;103538.50;;;3.47;100.00
29315;BME280;16320;53.954;9.506;2023-02-04T10:21:19;103541.34;;;3.58;100.00
29315;BME280;16320;53.954;9.506;2023-02-04T10:24:26;103536.16;;;3.58;100.00
29315;BME280;16320;53.954;9.506;2023-02-04T10:27:31;103528.50;;;3.64;100.00
29315;BME280;16320;53.954;9.506;2023-02-04T10:30:41;103539.72;;;3.63;100.00
29315;BME280;16320;53.954;9.506;2023-02-04T10:33:46;103539.88;;;3.69;100.00
29315;BME280;16320;53.954;9.506;2023-02-04T10:36:55;103534.75;;;3.72;100.00
29315;BME280;16320;53.954;9.506;2023-02-04T10:40:01;103544.53;;;3.84;100.00
29315;BME280;16320;53.954;9.506;2023-02-04T10:43:20;103537.72;;;3.91;100.00
29315;BME280;16320;53.954;9.506;2023-02-04T10:46:30;103536.97;;;3.95;100.00
29315;BME280;16320;53.954;9.506;2023-02-04T10:49:34;103539.56;;;3.96;100.00
29315;BME280;16320;53.954;9.506;2023-02-04T10:52:45;103535.34;;;4.00;100.00
29315;BME280;16320;53.954;9.506;2023-02-04T10:55:50;103531.03;;;4.02;100.00
29315;BME280;16320;53.954;9.506;2023-02-04T10:58:55;103536.34;;;4.07;100.00
29315;BME280;16320;53.954;9.506;2023-02-04T11:02:30;103529.53;;;4.13;100.00
29315;BME280;16320;53.954;9.506;2023-02-04T11:05:32;103530.38;;;4.12;100.00
29315;BME280;16320;53.954;9.506;2023-02-04T11:08:38;103521.53;;;4.04;100.00
29315;BME280;16320;53.954;9.506;2023-02-04T11:11:48;103519.88;;;4.09;100.00
29315;BME280;16320;53.954;9.506;2023-02-04T11:14:56;103520.03;;;4.15;100.00
29315;BME280;16320;53.954;9.506;2023-02-04T11:18:12;103512.38;;;4.23;100.00
29315;BME280;16320;53.954;9.506;2023-02-04T11:24:32;103521.94;;;4.26;100.00
29315;BME280;16320;53.954;9.506;2023-02-04T11:27:38;103524.56;;;4.24;100.00
29315;BME280;16320;53.954;9.506;2023-02-04T11:30:43;103516.63;;;4.18;100.00
29315;BME280;16320;53.954;9.506;2023-02-04T11:34:01;103516.53;;;4.13;100.00
29315;BME280;16320;53.954;9.506;2023-02-04T11:37:15;103515.31;;;3.97;100.00
29315;BME280;16320;53.954;9.506;2023-02-04T11:43:34;103550.25;;;4.09;100.00
29315;BME280;16320;53.954;9.506;2023-02-04T11:46:39;103554.03;;;4.25;100.00
29315;BME280;16320;53.954;9.506;2023-02-04T11:49:47;103561.22;;;4.36;100.00
29315;BME280;16320;53.954;9.506;2023-02-04T11:52:58;103557.00;;;4.43;100.00
29315;BME280;16320;53.954;9.506;2023-02-04T11:56:05;103542.34;;;4.48;100.00
29315;BME280;16320;53.954;9.506;2023-02-04T11:59:11;103550.50;;;4.67;100.00
29315;BME280;16320;53.954;9.506;2023-02-04T12:02:23;103541.22;;;4.81;100.00
29315;BME280;16320;53.954;9.506;2023-02-04T12:05:43;103533.28;;;4.75;100.00
29315;BME280;16320;53.954;9.506;2023-02-04T12:08:48;103533.41;;;4.81;100.00
29315;BME280;16320;53.954;9.506;2023-02-04T12:11:55;103547.31;;;4.83;100.00
29315;BME280;16320;53.954;9.506;2023-02-04T12:15:15;103542.28;;;4.92;100.00
29315;BME280;16320;53.954;9.506;2023-02-04T12:18:19;103535.19;;;4.85;100.00
29315;BME280;16320;53.954;9.506;2023-02-04T12:21:24;103524.94;;;4.94;100.00
29315;BME280;16320;53.954;9.506;2023-02-04T12:24:28;103534.41;;;4.89;100.00
29315;BME280;16320;53.954;9.506;2023-02-04T12:27:33;103524.72;;;4.82;100.00
29315;BME280;16320;53.954;9.506;2023-02-04T12:30:37;103528.19;;;4.81;100.00
29315;BME280;16320;53.954;9.506;2023-02-04T12:33:41;103531.63;;;4.79;100.00
29315;BME280;16320;53.954;9.506;2023-02-04T12:36:46;103531.53;;;4.74;100.00
29315;BME280;16320;53.954;9.506;2023-02-04T12:39:50;103534.00;;;4.68;100.00
29315;BME280;16320;53.954;9.506;2023-02-04T12:42:54;103526.13;;;4.62;100.00
29315;BME280;16320;53.954;9.506;2023-02-04T12:45:59;103531.91;;;4.45;100.00
29315;BME280;16320;53.954;9.506;2023-02-04T12:49:05;103527.66;;;4.50;100.00
29315;BME280;16320;53.954;9.506;2023-02-04T12:52:12;103526.78;;;4.51;100.00
29315;BME280;16320;53.954;9.506;2023-02-04T12:55:18;103538.13;;;4.53;100.00
29315;BME280;16320;53.954;9.506;2023-02-04T12:58:23;103533.56;;;4.43;100.00
29315;BME280;16320;53.954;9.506;2023-02-04T13:01:27;103533.56;;;4.43;100.00
29315;BME280;16320;53.954;9.506;2023-02-04T13:04:31;103544.00;;;4.45;100.00
29315;BME280;16320;53.954;9.506;2023-02-04T13:07:38;103552.94;;;4.57;100.00
29315;BME280;16320;53.954;9.506;2023-02-04T13:10:44;103546.09;;;4.63;100.00
29315;BME280;16320;53.954;9.506;2023-02-04T13:13:48;103555.88;;;4.76;100.00
29315;BME280;16320;53.954;9.506;2023-02-04T13:16:53;103551.44;;;4.70;100.00
29315;BME280;16320;53.954;9.506;2023-02-04T13:19:58;103553.25;;;4.74;100.00
29315;BME280;16320;53.954;9.506;2023-02-04T13:23:03;103560.28;;;4.80;100.00
29315;BME280;16320;53.954;9.506;2023-02-04T13:26:08;103546.41;;;4.80;100.00
29315;BME280;16320;53.954;9.506;2023-02-04T13:29:13;103567.25;;;4.81;100.00
29315;BME280;16320;53.954;9.506;2023-02-04T13:32:18;103566.44;;;4.84;100.00
29315;BME280;16320;53.954;9.506;2023-02-04T13:35:22;103552.47;;;4.80;100.00
29315;BME280;16320;53.954;9.506;2023-02-04T13:38:28;103538.69;;;4.84;100.00
29315;BME280;16320;53.954;9.506;2023-02-04T13:41:32;103549.94;;;4.83;100.00
29315;BME280;16320;53.954;9.506;2023-02-04T13:44:37;103544.50;;;4.71;100.00
29315;BME280;16320;53.954;9.506;2023-02-04T13:47:42;103546.41;;;4.80;100.00
29315;BME280;16320;53.954;9.506;2023-02-04T13:50:46;103568.09;;;4.80;100.00
29315;BME280;16320;53.954;9.506;2023-02-04T13:53:52;103562.03;;;4.80;100.00
29315;BME280;16320;53.954;9.506;2023-02-04T13:56:56;103564.66;;;4.81;100.00
29315;BME280;16320;53.954;9.506;2023-02-04T14:00:01;103562.78;;;4.74;100.00
29315;BME280;16320;53.954;9.506;2023-02-04T14:03:05;103557.50;;;4.71;100.00
29315;BME280;16320;53.954;9.506;2023-02-04T14:06:10;103560.03;;;4.65;100.00
29315;BME280;16320;53.954;9.506;2023-02-04T14:09:14;103559.94;;;4.60;100.00
29315;BME280;16320;53.954;9.506;2023-02-04T14:12:18;103562.25;;;4.46;100.00
29315;BME280;16320;53.954;9.506;2023-02-04T14:15:23;103565.66;;;4.42;100.00
29315;BME280;16320;53.954;9.506;2023-02-04T14:18:28;103575.97;;;4.37;100.00
29315;BME280;16320;53.954;9.506;2023-02-04T14:21:32;103575.81;;;4.30;100.00
29315;BME280;16320;53.954;9.506;2023-02-04T14:24:37;103572.06;;;4.15;100.00
29315;BME280;16320;53.954;9.506;2023-02-04T14:27:44;103573.88;;;4.19;100.00
29315;BME280;16320;53.954;9.506;2023-02-04T14:30:49;103572.13;;;4.18;100.00
29315;BME280;16320;53.954;9.506;2023-02-04T14:33:53;103570.34;;;4.17;100.00
29315;BME280;16320;53.954;9.506;2023-02-04T14:36:58;103581.31;;;4.02;100.00
29315;BME280;16320;53.954;9.506;2023-02-04T14:40:04;103587.22;;;3.94;100.00
29315;BME280;16320;53.954;9.506;2023-02-04T14:43:08;103602.69;;;3.88;100.00
29315;BME280;16320;53.954;9.506;2023-02-04T14:46:16;103604.50;;;3.92;100.00
29315;BME280;16320;53.954;9.506;2023-02-04T14:49:20;103607.00;;;3.87;100.00
29315;BME280;16320;53.954;9.506;2023-02-04T14:52:28;103618.22;;;3.84;100.00
29315;BME280;16320;53.954;9.506;2023-02-04T14:55:33;103620.50;;;3.71;100.00
29315;BME280;16320;53.954;9.506;2023-02-04T14:58:37;103616.84;;;3.62;100.00
29315;BME280;16320;53.954;9.506;2023-02-04T15:01:41;103631.34;;;3.53;100.00
29315;BME280;16320;53.954;9.506;2023-02-04T15:04:48;103632.06;;;3.47;100.00
29315;BME280;16320;53.954;9.506;2023-02-04T15:07:53;103633.78;;;3.46;100.00
29315;BME280;16320;53.954;9.506;2023-02-04T15:10:57;103631.34;;;3.53;100.00
29315;BME280;16320;53.954;9.506;2023-02-04T15:14:03;103633.91;;;3.51;100.00
29315;BME280;16320;53.954;9.506;2023-02-04T15:17:07;103627.81;;;3.51;100.00
29315;BME280;16320;53.954;9.506;2023-02-04T15:20:12;103627.72;;;3.47;100.00
29315;BME280;16320;53.954;9.506;2023-02-04T15:23:16;103626.84;;;3.47;100.00
29315;BME280;16320;53.954;9.506;2023-02-04T15:26:21;103621.25;;;3.30;100.00
29315;BME280;16320;53.954;9.506;2023-02-04T15:29:28;103631.47;;;3.24;100.00
29315;BME280;16320;53.954;9.506;2023-02-04T15:32:33;103635.72;;;3.20;100.00
29315;BME280;16320;53.954;9.506;2023-02-04T15:35:38;103635.78;;;3.22;100.00
29315;BME280;16320;53.954;9.506;2023-02-04T15:38:42;103629.50;;;3.15;100.00
29315;BME280;16320;53.954;9.506;2023-02-04T15:41:47;103637.03;;;3.04;100.00
29315;BME280;16320;53.954;9.506;2023-02-04T15:44:51;103644.66;;;2.98;100.00
29315;BME280;16320;53.954;9.506;2023-02-04T15:47:56;103650.94;;;3.06;100.00
29315;BME280;16320;53.954;9.506;2023-02-04T15:51:00;103650.94;;;3.06;100.00
29315;BME280;16320;53.954;9.506;2023-02-04T15:54:05;103643.84;;;2.99;100.00
29315;BME280;16320;53.954;9.506;2023-02-04T15:57:10;103642.81;;;2.94;100.00
29315;BME280;16320;53.954;9.506;2023-02-04T16:00:16;103640.91;;;2.87;100.00
29315;BME280;16320;53.954;9.506;2023-02-04T16:03:23;103646.84;;;2.83;100.00
29315;BME280;16320;53.954;9.506;2023-02-04T16:06:28;103655.47;;;2.82;100.00
29315;BME280;16320;53.954;9.506;2023-02-04T16:09:33;103652.09;;;2.86;100.00
29315;BME280;16320;53.954;9.506;2023-02-04T16:12:38;103651.97;;;2.80;100.00
29315;BME280;16320;53.954;9.506;2023-02-04T16:15:42;103653.78;;;2.84;100.00